Time;durP1;ratioP1;P1;durP2;ratioP2;P2;SDS_P1;SDS_P2;PMS_P1;PMS_P2;Temp;Humidity;BMP_temperature;BMP_pressure;BME280_temperature;BME280_humidity;BME280_pressure;Samples;Min_cycle;Max_cycle;Signal;HPM_P1;HPM_P2
2022/02/19 00:03:03;;;;;;;12.53;5.31;;;;;;;-1.86;79.40;99217.46;369696;142;880578;-61
2022/02/19 00:04:05;;;;;;;9.53;4.85;;;;;;;-2.00;79.61;99227.20;362847;147;857557;-62
2022/02/19 00:05:07;;;;;;;10.76;4.57;;;;;;;-2.04;80.09;99222.85;361963;146;865442;-62
2022/02/19 00:06:11;;;;;;;9.61;4.03;;;;;;;-2.03;80.40;99219.50;363167;147;856897;-62
2022/02/19 00:07:12;;;;;;;9.29;3.63;;;;;;;-1.99;80.58;99216.24;363598;147;856110;-62
2022/02/19 00:08:14;;;;;;;7.46;3.79;;;;;;;-1.92;80.62;99212.20;363025;146;856827;-62
2022/02/19 00:09:16;;;;;;;15.71;4.51;;;;;;;-1.82;80.34;99210.81;364255;146;863664;-62
2022/02/19 00:10:19;;;;;;;11.21;4.18;;;;;;;-1.71;80.18;99209.45;361352;147;856859;-63
2022/02/19 00:11:21;;;;;;;10.30;4.39;;;;;;;-1.59;79.79;99203.02;363274;147;864743;-62
2022/02/19 00:12:23;;;;;;;8.90;3.78;;;;;;;-1.44;79.59;99205.99;364726;144;857024;-62
2022/02/19 00:15:16;;;;;;;9.23;4.36;;;;;;;-1.01;77.92;99200.40;370502;142;870284;-62
2022/02/19 00:16:18;;;;;;;9.91;4.81;;;;;;;;;;364350;146;859979;-62
2022/02/19 00:17:20;;;;;;;7.85;3.99;;;;;;;;;;362490;145;857732;-62
2022/02/19 00:18:22;;;;;;;10.40;4.44;;;;;;;;;;363524;146;859577;-63
2022/02/19 00:19:24;;;;;;;11.77;4.66;;;;;;;;;;362320;145;857446;-62
2022/02/19 00:20:25;;;;;;;11.27;4.36;;;;;;;;;;362338;147;858893;-63
2022/02/19 00:21:27;;;;;;;8.40;4.88;;;;;;;;;;362998;146;856144;-62
2022/02/19 00:22:29;;;;;;;12.52;5.14;;;;;;;;;;361722;145;864034;-62
2022/02/19 00:23:30;;;;;;;10.98;4.83;;;;;;;;;;362332;146;859193;-62
2022/02/19 00:24:32;;;;;;;9.63;5.42;;;;;;;;;;363272;145;864243;-62
2022/02/19 00:25:33;;;;;;;9.94;5.26;;;;;;;;;;363422;145;862384;-62
2022/02/19 00:26:35;;;;;;;15.64;6.45;;;;;;;;;;363424;146;856446;-62
2022/02/19 00:27:37;;;;;;;14.14;6.24;;;;;;;;;;362823;145;857160;-63
2022/02/19 00:28:38;;;;;;;11.12;5.81;;;;;;;;;;364590;145;856695;-63
2022/02/19 00:29:40;;;;;;;13.32;5.94;;;;;;;;;;363020;145;863902;-62
2022/02/19 00:30:41;;;;;;;12.38;5.89;;;;;;;;;;363597;145;859272;-63
2022/02/19 00:31:43;;;;;;;16.14;7.51;;;;;;;;;;363890;145;856480;-62
2022/02/19 00:32:44;;;;;;;16.79;7.59;;;;;;;;;;363446;145;857764;-63
2022/02/19 00:33:46;;;;;;;14.06;6.91;;;;;;;;;;355066;147;856775;-62
2022/02/19 00:34:47;;;;;;;15.54;6.44;;;;;;;;;;356262;147;864031;-63
2022/02/19 00:35:49;;;;;;;13.23;6.52;;;;;;;;;;355920;148;863951;-63
2022/02/19 00:36:51;;;;;;;18.84;6.44;;;;;;;;;;355648;148;856673;-62
2022/02/19 00:37:52;;;;;;;14.06;5.79;;;;;;;;;;353670;148;860776;-62
2022/02/19 00:38:54;;;;;;;15.37;6.57;;;;;;;;;;356405;147;856659;-62
2022/02/19 00:39:55;;;;;;;13.79;6.33;;;;;;;;;;354180;148;856260;-62
2022/02/19 00:40:57;;;;;;;15.68;6.74;;;;;;;;;;356961;147;856734;-62
2022/02/19 00:41:58;;;;;;;14.66;7.02;;;;;;;;;;346972;151;864125;-63
2022/02/19 00:43:00;;;;;;;16.46;7.33;;;;;;;;;;349581;148;856553;-62
2022/02/19 00:44:01;;;;;;;16.58;7.11;;;;;;;;;;354049;147;856809;-64
2022/02/19 00:45:03;;;;;;;13.53;7.24;;;;;;;;;;353358;148;856902;-63
2022/02/19 00:46:05;;;;;;;13.13;6.93;;;;;;;;;;358193;147;861796;-63
2022/02/19 00:47:06;;;;;;;15.49;7.51;;;;;;;;;;355175;147;856591;-63
2022/02/19 00:48:08;;;;;;;15.29;6.96;;;;;;;;;;354160;147;864680;-62
2022/02/19 00:49:09;;;;;;;13.48;6.54;;;;;;;;;;354926;148;864035;-62
2022/02/19 00:50:11;;;;;;;16.40;7.77;;;;;;;;;;355835;148;856836;-62
2022/02/19 00:51:13;;;;;;;13.99;6.86;;;;;;;;;;356527;148;856157;-62
2022/02/19 00:52:15;;;;;;;18.79;7.98;;;;;;;;;;356290;147;864622;-62
2022/02/19 00:53:16;;;;;;;12.81;6.97;;;;;;;;;;355879;148;856279;-62
2022/02/19 00:54:18;;;;;;;13.07;6.75;;;;;;;;;;355189;148;856703;-62
2022/02/19 00:55:19;;;;;;;15.76;6.33;;;;;;;;;;354850;147;856952;-62
2022/02/19 00:56:23;;;;;;;16.29;6.56;;;;;;;;;;356674;148;857807;-62
2022/02/19 00:57:25;;;;;;;16.07;6.87;;;;;;;;;;354369;148;856630;-62
2022/02/19 00:58:26;;;;;;;14.51;6.53;;;;;;;;;;356810;147;856109;-63
2022/02/19 00:59:28;;;;;;;14.50;6.71;;;;;;;;;;354524;148;856179;-63
2022/02/19 01:00:29;;;;;;;12.54;6.65;;;;;;;;;;356119;147;862839;-62
2022/02/19 01:01:31;;;;;;;15.48;6.17;;;;;;;;;;356085;147;856995;-62
2022/02/19 01:02:33;;;;;;;12.78;5.67;;;;;;;;;;355129;147;857647;-62
2022/02/19 01:03:34;;;;;;;11.28;5.51;;;;;;;;;;357250;147;857430;-63
2022/02/19 01:04:36;;;;;;;13.09;6.17;;;;;;;;;;356296;147;856316;-63
2022/02/19 01:05:37;;;;;;;15.04;5.71;;;;;;;;;;354868;147;863884;-63
2022/02/19 01:06:39;;;;;;;14.15;6.02;;;;;;;;;;355562;147;856590;-63
2022/02/19 01:07:40;;;;;;;12.65;5.69;;;;;;;;;;355650;148;863971;-63
2022/02/19 01:08:42;;;;;;;13.41;6.36;;;;;;;;;;355246;148;856610;-63
2022/02/19 01:09:44;;;;;;;15.57;6.24;;;;;;;;;;353552;148;863910;-62
2022/02/19 01:10:45;;;;;;;11.79;5.70;;;;;;;;;;354897;148;856433;-62
2022/02/19 01:11:47;;;;;;;9.99;6.03;;;;;;;;;;356157;147;863935;-62
2022/02/19 01:12:48;;;;;;;11.24;5.64;;;;;;;;;;355277;147;856266;-63
2022/02/19 01:13:50;;;;;;;13.31;6.22;;;;;;;;;;355993;147;863930;-62
2022/02/19 01:14:52;;;;;;;11.44;5.63;;;;;;;;;;354408;148;864180;-62
2022/02/19 01:15:54;;;;;;;16.39;6.59;;;;;;;;;;357383;147;856893;-63
2022/02/19 01:16:56;;;;;;;15.68;6.08;;;;;;;;;;354883;147;856302;-63
2022/02/19 01:17:58;;;;;;;14.01;6.11;;;;;;;;;;355386;147;856495;-62
2022/02/19 01:18:59;;;;;;;13.50;6.46;;;;;;;;;;354177;148;864014;-63
2022/02/19 01:20:01;;;;;;;11.61;6.05;;;;;;;;;;357011;147;857554;-62
2022/02/19 01:21:02;;;;;;;11.91;6.94;;;;;;;;;;356080;148;863972;-62
2022/02/19 01:22:06;;;;;;;14.64;6.16;;;;;;;;;;356519;148;857250;-62
2022/02/19 01:23:07;;;;;;;13.43;5.96;;;;;;;;;;356228;148;864055;-63
2022/02/19 01:24:09;;;;;;;11.88;6.37;;;;;;;;;;355414;147;857406;-63
2022/02/19 01:25:10;;;;;;;12.10;5.95;;;;;;;;;;355226;148;864034;-63
2022/02/19 01:26:12;;;;;;;13.52;6.09;;;;;;;;;;356184;148;856279;-62
2022/02/19 01:27:14;;;;;;;11.55;5.82;;;;;;;;;;356398;147;856536;-62
2022/02/19 01:28:15;;;;;;;12.03;6.31;;;;;;;;;;354951;148;857251;-62
2022/02/19 01:29:17;;;;;;;12.03;5.93;;;;;;;;;;355446;148;864147;-63
2022/02/19 01:30:19;;;;;;;12.44;5.83;;;;;;;;;;354095;147;864002;-62
2022/02/19 01:31:21;;;;;;;11.09;5.29;;;;;;;;;;356213;147;856412;-62
2022/02/19 01:32:23;;;;;;;9.19;5.45;;;;;;;;;;355601;147;863963;-62
2022/02/19 01:33:24;;;;;;;12.30;6.05;;;;;;;;;;354527;147;863981;-63
2022/02/19 01:34:26;;;;;;;11.05;5.46;;;;;;;;;;354805;147;864544;-62
2022/02/19 01:47:15;;;;;;;12.24;5.12;;;;;;;-0.23;75.74;99074.28;371346;142;875968;-63
2022/02/19 01:48:19;;;;;;;8.96;4.69;;;;;;;;;;363390;147;857870;-62
2022/02/19 01:49:23;;;;;;;10.20;4.69;;;;;;;;;;364404;147;864960;-63
2022/02/19 01:50:24;;;;;;;11.27;4.57;;;;;;;;;;362424;146;858600;-62
2022/02/19 01:51:30;;;;;;;11.74;4.56;;;;;;;;;;361341;147;857175;-62
2022/02/19 01:52:29;;;;;;;11.90;4.26;;;;;;;;;;364834;146;864240;-62
2022/02/19 01:53:31;;;;;;;16.94;4.83;;;;;;;;;;358464;147;864067;-62
2022/02/19 01:54:33;;;;;;;11.30;5.49;;;;;;;;;;357537;147;863962;-62
2022/02/19 01:55:34;;;;;;;9.68;5.29;;;;;;;;;;353384;151;863943;-63
2022/02/19 01:56:36;;;;;;;13.13;5.07;;;;;;;;;;353208;151;856455;-62
2022/02/19 01:57:38;;;;;;;11.45;4.91;;;;;;;;;;353207;150;856416;-64
2022/02/19 01:58:39;;;;;;;10.95;5.31;;;;;;;;;;353579;151;856112;-64
2022/02/19 01:59:41;;;;;;;9.53;5.33;;;;;;;;;;352466;150;856213;-63
2022/02/19 02:00:43;;;;;;;12.15;5.63;;;;;;;;;;354546;150;863949;-63
2022/02/19 02:01:44;;;;;;;11.64;4.46;;;;;;;;;;355420;150;856216;-63
2022/02/19 02:02:46;;;;;;;11.81;5.23;;;;;;;;;;356350;147;863913;-62
2022/02/19 02:03:47;;;;;;;14.44;4.70;;;;;;;;;;357521;147;862792;-63
2022/02/19 02:04:49;;;;;;;14.10;5.80;;;;;;;;;;355893;150;863947;-63
2022/02/19 02:05:50;;;;;;;10.06;5.04;;;;;;;;;;351311;151;856410;-63
2022/02/19 02:06:52;;;;;;;10.19;5.05;;;;;;;;;;352213;150;858087;-64
2022/02/19 02:07:54;;;;;;;16.04;6.58;;;;;;;;;;357139;147;864180;-63
2022/02/19 02:08:56;;;;;;;11.91;5.17;;;;;;;;;;353566;151;862237;-63
2022/02/19 02:09:58;;;;;;;17.38;6.55;;;;;;;;;;352103;151;863895;-63
2022/02/19 02:11:01;;;;;;;8.73;4.25;;;;;;;;;;350821;150;857243;-63
2022/02/19 02:12:03;;;;;;;10.48;4.46;;;;;;;;;;355039;147;856789;-64
2022/02/19 02:13:04;;;;;;;9.25;5.19;;;;;;;;;;356314;147;856781;-63
2022/02/19 02:14:09;;;;;;;10.70;4.50;;;;;;;;;;357408;147;857505;-63
2022/02/19 02:15:24;;;;;;;11.29;5.39;;;;;;;;;;355667;147;856951;-62
2022/02/19 02:16:37;;;;;;;11.11;4.47;;;;;;;;;;356516;150;863973;-63
2022/02/19 02:17:39;;;;;;;11.28;5.24;;;;;;;;;;356519;149;856685;-64
2022/02/19 02:18:44;;;;;;;12.43;4.89;;;;;;;;;;357485;149;856545;-63
2022/02/19 02:19:46;;;;;;;11.42;5.36;;;;;;;;;;359261;147;856176;-63
2022/02/19 02:20:47;;;;;;;11.57;5.80;;;;;;;;;;357137;147;856089;-62
2022/02/19 02:21:49;;;;;;;12.54;5.94;;;;;;;;;;356850;147;864146;-63
2022/02/19 02:22:50;;;;;;;13.93;5.67;;;;;;;;;;356142;147;864080;-63
2022/02/19 02:23:52;;;;;;;11.81;4.96;;;;;;;;;;358255;150;863935;-63
2022/02/19 02:24:53;;;;;;;9.83;4.86;;;;;;;;;;357275;147;856346;-62
2022/02/19 02:25:55;;;;;;;12.57;5.83;;;;;;;;;;356925;149;856442;-63
2022/02/19 02:26:57;;;;;;;11.89;5.13;;;;;;;;;;356315;147;857323;-63
2022/02/19 02:27:58;;;;;;;10.63;4.61;;;;;;;;;;356461;147;864686;-63
2022/02/19 02:29:00;;;;;;;12.99;4.52;;;;;;;;;;354526;151;857320;-63
2022/02/19 02:30:01;;;;;;;10.80;5.01;;;;;;;;;;353077;151;856751;-63
2022/02/19 02:31:03;;;;;;;10.21;4.65;;;;;;;;;;352774;151;856605;-63
2022/02/19 02:32:05;;;;;;;12.25;4.71;;;;;;;;;;355521;147;857101;-63
2022/02/19 02:33:10;;;;;;;11.35;5.05;;;;;;;;;;358523;147;856777;-64
2022/02/19 02:34:12;;;;;;;9.86;4.92;;;;;;;;;;355987;147;856695;-64
2022/02/19 02:35:15;;;;;;;13.54;4.85;;;;;;;;;;357198;147;856613;-63
2022/02/19 02:36:18;;;;;;;13.98;5.40;;;;;;;;;;355609;147;856229;-64
2022/02/19 02:37:19;;;;;;;6.76;3.69;;;;;;;;;;356416;147;856106;-63
2022/02/19 02:38:21;;;;;;;12.16;4.93;;;;;;;;;;358262;147;863772;-64
2022/02/19 02:39:23;;;;;;;8.26;4.24;;;;;;;;;;356578;147;856251;-64
2022/02/19 02:40:24;;;;;;;10.24;4.40;;;;;;;;;;358492;147;856738;-64
2022/02/19 02:41:26;;;;;;;9.38;5.01;;;;;;;;;;354860;147;863891;-63
2022/02/19 02:42:27;;;;;;;11.44;4.39;;;;;;;;;;357169;147;856473;-63
2022/02/19 02:43:29;;;;;;;9.73;5.51;;;;;;;;;;355004;149;863890;-63
2022/02/19 02:44:31;;;;;;;8.43;4.00;;;;;;;;;;356990;147;858113;-63
2022/02/19 02:45:32;;;;;;;9.81;4.67;;;;;;;;;;356525;147;856879;-63
2022/02/19 02:46:34;;;;;;;8.28;4.64;;;;;;;;;;356562;149;856420;-64
2022/02/19 02:47:36;;;;;;;9.72;4.63;;;;;;;;;;354918;147;863940;-63
2022/02/19 02:48:37;;;;;;;9.93;5.24;;;;;;;;;;355053;150;856749;-63
2022/02/19 02:49:39;;;;;;;9.61;4.59;;;;;;;;;;355124;150;856947;-62
2022/02/19 02:50:41;;;;;;;10.34;4.44;;;;;;;;;;354774;150;856212;-63
2022/02/19 02:51:43;;;;;;;12.61;5.33;;;;;;;;;;355123;150;864635;-62
2022/02/19 02:52:44;;;;;;;9.55;4.46;;;;;;;;;;354411;149;863818;-63
2022/02/19 02:53:46;;;;;;;7.30;4.01;;;;;;;;;;355360;149;856496;-62
2022/02/19 02:54:47;;;;;;;11.01;4.80;;;;;;;;;;355602;150;863669;-62
2022/02/19 02:55:49;;;;;;;12.61;4.84;;;;;;;;;;348929;150;856370;-65
2022/02/19 02:56:50;;;;;;;8.80;4.64;;;;;;;;;;349220;153;864193;-63
2022/02/19 02:57:52;;;;;;;12.41;6.27;;;;;;;;;;355655;150;856893;-63
2022/02/19 02:58:53;;;;;;;8.85;4.89;;;;;;;;;;354437;150;856678;-63
2022/02/19 02:59:55;;;;;;;12.31;5.02;;;;;;;;;;354365;149;856107;-62
2022/02/19 03:00:56;;;;;;;9.86;4.78;;;;;;;;;;355976;149;856789;-63
2022/02/19 03:01:58;;;;;;;10.23;4.76;;;;;;;;;;354749;147;856834;-63
2022/02/19 03:02:59;;;;;;;14.21;5.09;;;;;;;;;;341656;154;856543;-63
2022/02/19 03:04:01;;;;;;;8.56;3.94;;;;;;;;;;347837;150;864751;-63
2022/02/19 03:05:05;;;;;;;15.06;4.69;;;;;;;;;;348231;153;856495;-65
2022/02/19 03:06:07;;;;;;;9.32;4.52;;;;;;;;;;346648;153;864097;-63
2022/02/19 03:07:08;;;;;;;6.14;3.73;;;;;;;;;;349315;150;856657;-63
2022/02/19 03:08:10;;;;;;;6.45;3.86;;;;;;;;;;343331;152;864324;-63
2022/02/19 03:09:11;;;;;;;8.71;4.14;;;;;;;;;;344679;155;856542;-63
2022/02/19 03:10:16;;;;;;;10.71;4.48;;;;;;;;;;343148;153;858056;-63
2022/02/19 03:11:17;;;;;;;9.23;4.17;;;;;;;;;;341589;156;856223;-63
2022/02/19 03:12:18;;;;;;;9.06;4.14;;;;;;;;;;348174;153;857133;-64
2022/02/19 03:13:20;;;;;;;9.02;4.57;;;;;;;;;;346194;153;863839;-63
2022/02/19 03:14:21;;;;;;;10.14;4.07;;;;;;;;;;341940;155;858461;-63
2022/02/19 03:15:23;;;;;;;12.94;4.19;;;;;;;;;;344125;153;856868;-63
2022/02/19 03:16:26;;;;;;;11.88;4.74;;;;;;;;;;340383;151;856777;-63
2022/02/19 03:17:28;;;;;;;10.46;4.23;;;;;;;;;;342721;152;857654;-62
2022/02/19 03:18:30;;;;;;;10.83;4.16;;;;;;;;;;342356;153;863870;-63
2022/02/19 03:19:31;;;;;;;13.99;3.84;;;;;;;;;;344837;155;864030;-63
2022/02/19 03:20:33;;;;;;;9.73;4.66;;;;;;;;;;341505;153;864289;-63
2022/02/19 03:21:35;;;;;;;8.81;4.11;;;;;;;;;;341571;154;856802;-63
2022/02/19 03:22:36;;;;;;;9.24;4.68;;;;;;;;;;345278;153;856383;-63
2022/02/19 03:35:05;;;;;;;7.97;3.42;;;;;;;1.06;71.15;98956.91;368902;142;868341;-61
2022/02/19 03:36:07;;;;;;;14.79;3.56;;;;;;;1.00;70.98;98955.11;360769;146;856650;-63
2022/02/19 03:37:09;;;;;;;5.19;2.58;;;;;;;1.00;70.66;98952.56;361352;147;856269;-61
2022/02/19 03:38:11;;;;;;;5.55;3.20;;;;;;;1.06;70.56;98953.48;362088;147;856150;-60
2022/02/19 03:39:12;;;;;;;6.54;3.67;;;;;;;;;;360919;146;856126;-62
2022/02/19 03:40:15;;;;;;;5.83;3.15;;;;;;;;;;361620;147;863926;-61
2022/02/19 03:41:17;;;;;;;5.53;2.69;;;;;;;;;;362918;147;856846;-61
2022/02/19 03:42:18;;;;;;;5.94;2.74;;;;;;;;;;363472;147;856292;-59
2022/02/19 03:43:20;;;;;;;5.24;2.94;;;;;;;;;;360467;147;856315;-61
2022/02/19 03:44:22;;;;;;;5.44;2.68;;;;;;;;;;361626;147;856373;-61
2022/02/19 03:45:23;;;;;;;4.98;2.71;;;;;;;;;;360622;146;856428;-61
2022/02/19 03:46:25;;;;;;;7.29;3.25;;;;;;;;;;362641;146;863790;-61
2022/02/19 03:47:26;;;;;;;7.31;3.61;;;;;;;;;;362143;147;863861;-60
2022/02/19 03:48:28;;;;;;;8.36;2.95;;;;;;;;;;362228;147;858216;-59
2022/02/19 03:49:29;;;;;;;7.83;3.73;;;;;;;;;;362361;146;860019;-61
2022/02/19 03:50:31;;;;;;;6.83;3.10;;;;;;;;;;351965;151;857138;-60
2022/02/19 03:51:33;;;;;;;7.50;3.33;;;;;;;;;;352214;151;863847;-64
2022/02/19 03:52:38;;;;;;;6.27;3.25;;;;;;;;;;361407;146;864133;-65
2022/02/19 03:53:39;;;;;;;5.76;3.02;;;;;;;;;;361489;146;856276;-64
2022/02/19 03:54:41;;;;;;;9.44;4.15;;;;;;;;;;361168;147;856342;-60
2022/02/19 03:55:42;;;;;;;8.51;4.61;;;;;;;;;;362327;146;856711;-61
2022/02/19 03:56:44;;;;;;;8.59;3.78;;;;;;;;;;361510;146;857178;-61
2022/02/19 03:57:45;;;;;;;6.50;3.01;;;;;;;;;;361570;147;857030;-60
2022/02/19 03:58:47;;;;;;;5.68;3.10;;;;;;;;;;361154;147;856836;-61
2022/02/19 03:59:48;;;;;;;6.11;3.21;;;;;;;;;;360075;146;857056;-61
2022/02/19 04:00:50;;;;;;;7.24;3.59;;;;;;;;;;362299;147;863858;-60
2022/02/19 04:01:52;;;;;;;8.98;4.15;;;;;;;;;;362667;147;858156;-61
2022/02/19 04:02:53;;;;;;;12.63;3.46;;;;;;;;;;362149;146;858137;-59
2022/02/19 04:03:55;;;;;;;8.38;3.79;;;;;;;;;;361859;146;856655;-60
2022/02/19 04:04:57;;;;;;;8.86;3.61;;;;;;;;;;362119;147;856785;-58
2022/02/19 04:05:58;;;;;;;8.46;3.09;;;;;;;;;;361664;147;864246;-57
2022/02/19 04:07:00;;;;;;;5.31;3.19;;;;;;;;;;362179;146;858331;-58
2022/02/19 04:08:02;;;;;;;5.94;3.23;;;;;;;;;;361025;147;856760;-59
2022/02/19 04:09:03;;;;;;;7.80;3.83;;;;;;;;;;361621;147;856307;-59
2022/02/19 04:10:06;;;;;;;5.69;3.37;;;;;;;;;;364189;146;863987;-59
2022/02/19 04:11:07;;;;;;;7.07;3.82;;;;;;;;;;360516;147;856871;-61
2022/02/19 04:12:09;;;;;;;7.66;3.60;;;;;;;;;;363873;147;856261;-58
2022/02/19 04:13:11;;;;;;;6.49;3.51;;;;;;;;;;362634;147;856353;-60
2022/02/19 04:14:12;;;;;;;9.15;3.69;;;;;;;;;;361767;146;856975;-59
2022/02/19 04:15:14;;;;;;;6.12;3.39;;;;;;;;;;360846;147;862137;-59
2022/02/19 04:16:16;;;;;;;6.16;3.11;;;;;;;;;;360939;147;856556;-60
2022/02/19 04:17:17;;;;;;;6.73;3.59;;;;;;;;;;362371;146;856119;-59
2022/02/19 04:18:19;;;;;;;7.06;3.21;;;;;;;;;;360881;146;856853;-61
2022/02/19 04:19:20;;;;;;;6.74;3.41;;;;;;;;;;363238;147;856471;-59
2022/02/19 04:20:23;;;;;;;5.17;2.68;;;;;;;;;;362220;147;856725;-61
2022/02/19 04:21:25;;;;;;;9.67;4.37;;;;;;;;;;361999;146;856212;-59
2022/02/19 04:22:26;;;;;;;6.68;3.16;;;;;;;;;;362372;147;856662;-58
2022/02/19 04:23:28;;;;;;;8.35;3.46;;;;;;;;;;361101;147;856856;-58
2022/02/19 04:24:29;;;;;;;8.41;3.75;;;;;;;;;;360905;147;856330;-61
2022/02/19 04:25:32;;;;;;;8.14;3.76;;;;;;;;;;362302;147;856178;-62
2022/02/19 04:26:33;;;;;;;5.89;3.10;;;;;;;;;;359628;147;856274;-59
2022/02/19 04:27:35;;;;;;;7.81;3.52;;;;;;;;;;362063;147;856644;-58
2022/02/19 04:28:36;;;;;;;5.71;3.29;;;;;;;;;;362012;146;856271;-58
2022/02/19 04:29:38;;;;;;;9.79;3.44;;;;;;;;;;362266;147;856530;-60
2022/02/19 04:30:39;;;;;;;7.53;3.50;;;;;;;;;;361267;147;863818;-58
2022/02/19 04:31:42;;;;;;;8.42;3.89;;;;;;;;;;361980;146;863820;-60
2022/02/19 04:32:43;;;;;;;4.33;3.10;;;;;;;;;;359942;147;863926;-58
2022/02/19 04:33:45;;;;;;;8.04;3.52;;;;;;;;;;361554;147;856366;-60
2022/02/19 04:34:47;;;;;;;6.59;3.31;;;;;;;;;;362345;147;856658;-59
2022/02/19 04:35:48;;;;;;;5.31;3.17;;;;;;;;;;362499;147;857197;-57
2022/02/19 04:36:50;;;;;;;8.97;3.29;;;;;;;;;;361652;147;864134;-61
2022/02/19 04:37:51;;;;;;;8.27;3.94;;;;;;;;;;362034;146;856361;-59
2022/02/19 04:38:53;;;;;;;7.73;3.69;;;;;;;;;;361235;146;859520;-58
2022/02/19 04:39:54;;;;;;;5.28;3.17;;;;;;;;;;361605;147;856649;-59
2022/02/19 04:40:56;;;;;;;6.23;3.36;;;;;;;;;;362924;147;857281;-58
2022/02/19 04:41:57;;;;;;;8.95;4.25;;;;;;;;;;362764;147;857046;-57
2022/02/19 04:42:59;;;;;;;6.61;3.26;;;;;;;;;;362927;147;856727;-59
2022/02/19 04:44:01;;;;;;;6.86;3.49;;;;;;;;;;362632;147;857508;-60
2022/02/19 04:45:02;;;;;;;6.40;3.66;;;;;;;;;;361931;146;856270;-59
2022/02/19 04:46:04;;;;;;;9.54;3.46;;;;;;;;;;361505;146;856226;-60
2022/02/19 04:47:06;;;;;;;5.87;4.00;;;;;;;;;;361002;147;864958;-59
2022/02/19 04:48:07;;;;;;;6.51;3.61;;;;;;;;;;362385;147;861825;-59
2022/02/19 04:49:09;;;;;;;6.81;3.41;;;;;;;;;;360990;147;864529;-59
2022/02/19 04:50:11;;;;;;;7.94;3.39;;;;;;;;;;360827;147;863716;-60
2022/02/19 04:51:13;;;;;;;5.09;2.69;;;;;;;;;;361390;147;856361;-59
2022/02/19 04:52:14;;;;;;;5.56;2.58;;;;;;;;;;361090;146;862142;-58
2022/02/19 04:53:16;;;;;;;5.44;3.14;;;;;;;;;;361364;147;857209;-59
2022/02/19 04:54:17;;;;;;;6.17;2.95;;;;;;;;;;360857;147;863713;-57
2022/02/19 04:55:19;;;;;;;7.74;3.46;;;;;;;;;;360163;147;856257;-56
2022/02/19 04:56:21;;;;;;;3.19;2.49;;;;;;;;;;363049;147;856182;-58
2022/02/19 04:57:23;;;;;;;9.94;3.34;;;;;;;;;;363763;147;856211;-60
2022/02/19 04:58:24;;;;;;;6.11;3.02;;;;;;;;;;360996;147;856289;-58
2022/02/19 04:59:26;;;;;;;7.08;2.96;;;;;;;;;;361779;146;857395;-60
2022/02/19 05:00:28;;;;;;;7.33;3.12;;;;;;;;;;360955;147;863935;-59
2022/02/19 05:01:30;;;;;;;5.61;3.22;;;;;;;;;;362062;147;857278;-58
2022/02/19 05:02:32;;;;;;;7.77;3.28;;;;;;;;;;360891;146;863891;-58
2022/02/19 05:03:35;;;;;;;8.99;3.06;;;;;;;;;;360935;146;856249;-58
2022/02/19 05:04:36;;;;;;;5.35;2.70;;;;;;;;;;362144;147;863889;-59
2022/02/19 05:05:38;;;;;;;7.03;3.64;;;;;;;;;;361978;146;856161;-60
2022/02/19 05:06:39;;;;;;;6.58;2.96;;;;;;;;;;361132;146;863740;-59
2022/02/19 05:07:41;;;;;;;8.31;3.60;;;;;;;;;;361287;147;856964;-60
2022/02/19 05:08:42;;;;;;;6.92;3.24;;;;;;;;;;360798;147;856546;-59
2022/02/19 05:09:44;;;;;;;8.11;3.76;;;;;;;;;;361062;146;856924;-58
2022/02/19 05:10:45;;;;;;;8.70;3.86;;;;;;;;;;362878;146;856274;-59
2022/02/19 05:11:47;;;;;;;6.44;3.53;;;;;;;;;;361620;146;856456;-58
2022/02/19 05:12:50;;;;;;;5.20;3.33;;;;;;;;;;361552;147;856449;-57
2022/02/19 05:13:52;;;;;;;8.96;4.12;;;;;;;;;;355171;149;856268;-59
2022/02/19 05:14:53;;;;;;;6.99;3.24;;;;;;;;;;360381;147;856230;-59
2022/02/19 05:15:55;;;;;;;7.01;3.41;;;;;;;;;;361503;146;856258;-59
2022/02/19 05:16:56;;;;;;;7.46;4.16;;;;;;;;;;361128;146;856233;-58
2022/02/19 05:18:01;;;;;;;10.77;3.91;;;;;;;;;;361657;147;856652;-58
2022/02/19 05:19:01;;;;;;;5.21;3.49;;;;;;;;;;361995;147;864260;-57
2022/02/19 05:20:03;;;;;;;6.25;3.49;;;;;;;;;;361104;146;856802;-59
2022/02/19 05:21:05;;;;;;;5.74;3.31;;;;;;;;;;362020;146;863861;-59
2022/02/19 05:22:06;;;;;;;11.43;3.96;;;;;;;;;;362057;147;856881;-58
2022/02/19 05:23:08;;;;;;;6.24;3.44;;;;;;;;;;361589;147;857692;-58
2022/02/19 05:24:09;;;;;;;6.98;3.75;;;;;;;;;;362845;146;856504;-58
2022/02/19 05:25:11;;;;;;;5.85;3.46;;;;;;;;;;360939;147;856762;-57
2022/02/19 05:26:13;;;;;;;8.87;3.61;;;;;;;;;;362097;147;857108;-58
2022/02/19 05:34:37;;;;;;;5.89;2.69;;;;;;;2.16;62.90;98868.89;370359;142;881261;-56
2022/02/19 05:35:39;;;;;;;6.38;2.49;;;;;;;;;;363740;144;856695;-57
2022/02/19 05:36:41;;;;;;;7.41;3.38;;;;;;;;;;365075;144;856592;-54
2022/02/19 05:37:42;;;;;;;7.99;3.64;;;;;;;;;;363637;145;864391;-55
2022/02/19 05:38:44;;;;;;;6.55;3.25;;;;;;;;;;362527;145;856376;-57
2022/02/19 05:39:45;;;;;;;6.10;3.16;;;;;;;;;;362118;146;856678;-57
2022/02/19 05:40:47;;;;;;;5.72;3.18;;;;;;;;;;361680;144;862181;-56
2022/02/19 05:41:49;;;;;;;7.35;3.27;;;;;;;;;;363001;144;857207;-58
2022/02/19 05:42:51;;;;;;;9.68;3.34;;;;;;;;;;362818;144;856671;-58
2022/02/19 05:43:52;;;;;;;8.24;3.61;;;;;;;;;;362647;145;863816;-59
2022/02/19 05:44:54;;;;;;;6.13;3.27;;;;;;;;;;362841;145;856168;-57
2022/02/19 05:45:55;;;;;;;7.88;3.61;;;;;;;;;;364148;144;856371;-58
2022/02/19 05:46:57;;;;;;;5.59;3.16;;;;;;;;;;363083;144;856290;-57
2022/02/19 05:47:58;;;;;;;5.20;2.79;;;;;;;;;;363127;144;863897;-58
2022/02/19 05:49:00;;;;;;;7.88;3.49;;;;;;;;;;356842;147;861332;-58
2022/02/19 05:50:02;;;;;;;7.58;3.90;;;;;;;;;;356749;148;856704;-57
2022/02/19 05:51:04;;;;;;;6.76;3.65;;;;;;;;;;363004;145;863917;-57
2022/02/19 05:52:05;;;;;;;6.21;3.65;;;;;;;;;;362086;144;864084;-60
2022/02/19 05:54:52;;;;;;;7.46;3.61;;;;;;;1.52;72.75;98866.52;365835;142;969026;-58
2022/02/19 05:55:53;;;;;;;6.46;2.96;;;;;;;;;;362128;146;856214;-59
2022/02/19 05:56:55;;;;;;;7.03;2.71;;;;;;;;;;362695;147;863807;-59
2022/02/19 05:57:56;;;;;;;5.15;3.05;;;;;;;;;;362793;147;856673;-57
2022/02/19 05:58:58;;;;;;;8.54;3.09;;;;;;;;;;363384;146;856796;-57
2022/02/19 05:59:59;;;;;;;8.04;3.01;;;;;;;;;;362579;147;856298;-55
2022/02/19 06:01:01;;;;;;;4.89;2.55;;;;;;;;;;362597;147;856823;-56
2022/02/19 06:02:03;;;;;;;6.63;3.32;;;;;;;;;;362977;146;856652;-57
2022/02/19 06:03:05;;;;;;;8.39;3.64;;;;;;;;;;361902;146;856854;-56
2022/02/19 06:04:07;;;;;;;4.26;2.72;;;;;;;;;;362583;147;865806;-58
2022/02/19 06:05:08;;;;;;;7.64;3.74;;;;;;;;;;362634;146;858571;-55
2022/02/19 06:06:10;;;;;;;5.67;3.64;;;;;;;;;;362611;146;856374;-56
2022/02/19 06:07:11;;;;;;;8.02;3.84;;;;;;;;;;362504;147;863789;-57
2022/02/19 06:08:13;;;;;;;7.91;3.51;;;;;;;;;;361819;147;856369;-56
2022/02/19 06:09:14;;;;;;;11.94;3.81;;;;;;;;;;362300;146;863787;-57
2022/02/19 06:10:18;;;;;;;9.38;4.76;;;;;;;;;;363240;147;856773;-58
2022/02/19 06:11:19;;;;;;;8.60;3.54;;;;;;;;;;362951;147;856317;-60
2022/02/19 06:14:20;;;;;;;9.80;4.33;;;;;;;0.85;79.44;98835.11;369823;142;878135;-58
2022/02/19 06:15:22;;;;;;;5.97;2.61;;;;;;;0.71;79.57;98843.42;364145;146;858952;-58
2022/02/19 06:16:24;;;;;;;5.11;2.34;;;;;;;0.73;79.61;98841.75;362493;145;857180;-56
2022/02/19 06:17:26;;;;;;;7.63;2.23;;;;;;;0.71;79.75;98817.94;363959;146;857172;-56
2022/02/19 06:18:28;;;;;;;6.73;2.46;;;;;;;0.76;79.58;98830.76;364629;146;865046;-61
2022/02/19 06:19:29;;;;;;;6.84;3.05;;;;;;;0.80;79.55;98823.99;362711;146;858881;-56
2022/02/19 06:20:31;;;;;;;9.10;2.31;;;;;;;0.90;79.28;98820.73;362598;146;865325;-55
2022/02/19 06:21:34;;;;;;;7.13;2.19;;;;;;;0.92;79.24;98816.51;359757;147;857198;-57
2022/02/19 06:22:36;;;;;;;4.63;2.52;;;;;;;1.02;78.98;98808.14;362888;146;863848;-59
2022/02/19 06:23:37;;;;;;;6.15;2.25;;;;;;;1.08;78.44;98792.08;363592;146;856831;-57
2022/02/19 06:24:39;;;;;;;5.96;2.29;;;;;;;;;;362967;146;863633;-57
2022/02/19 06:25:41;;;;;;;4.24;2.25;;;;;;;;;;363467;146;863856;-55
2022/02/19 06:26:42;;;;;;;6.44;2.41;;;;;;;;;;364322;147;863706;-62
2022/02/19 06:27:44;;;;;;;3.56;2.42;;;;;;;;;;364103;146;864224;-60
2022/02/19 06:28:45;;;;;;;7.16;2.61;;;;;;;;;;365434;145;856626;-58
2022/02/19 06:29:47;;;;;;;5.05;2.67;;;;;;;;;;362149;146;863637;-62
2022/02/19 06:30:49;;;;;;;5.52;2.42;;;;;;;;;;364061;146;863631;-57
2022/02/19 06:31:50;;;;;;;6.51;2.68;;;;;;;;;;363770;146;857261;-56
2022/02/19 06:32:52;;;;;;;6.90;3.09;;;;;;;;;;364114;145;858119;-55
2022/02/19 06:33:54;;;;;;;8.82;4.07;;;;;;;;;;363387;144;857194;-58